Terminal Aerodrome Forecast
Issued by NWS

Home | Current Version | Previous Version | Text Only | Print | Product List | Glossary On
Versions: 1 2 3 4 5 6 7 8 9 10 11 12 13 14 15 16 17
084
FTUS46 KSEW 040530
TAFPAE
TAF
KPAE 040530Z 0406/0506 19011G18KT P6SM OVC015
      TEMPO 0406/0409 5SM -RA BR
     FM040900 VRB05KT 4SM -RA BR OVC012
     FM041300 31005KT P6SM -SHRA BKN007 OVC015
     FM041600 32005KT P6SM VCSH BKN015 BKN040
     FM042000 33005KT P6SM VCSH BKN025
     FM050300 18006KT P6SM -SHSN SCT020 BKN045 OVC070=

USA.gov is the U.S. government's official web portal to all federal, state and local government web resources and services.